sensor_id;sensor_type;location;lat;lon;timestamp;pressure;altitude;pressure_sealevel;temperature;humidity
67434;BME280;54305;47.950;6.572;2023-10-13T00:02:06;94527.56;;;14.44;100.00
67434;BME280;54305;47.950;6.572;2023-10-13T00:04:32;94528.94;;;14.55;100.00
67434;BME280;54305;47.950;6.572;2023-10-13T00:07:01;94526.31;;;14.55;100.00
67434;BME280;54305;47.950;6.572;2023-10-13T00:09:27;94522.06;;;14.54;100.00
67434;BME280;54305;47.950;6.572;2023-10-13T00:12:02;94533.28;;;14.77;100.00
67434;BME280;54305;47.950;6.572;2023-10-13T00:14:29;94528.75;;;14.71;100.00
67434;BME280;54305;47.950;6.572;2023-10-13T00:17:00;94529.31;;;14.52;100.00
67434;BME280;54305;47.950;6.572;2023-10-13T00:19:33;94522.06;;;14.54;100.00
67434;BME280;54305;47.950;6.572;2023-10-13T00:22:05;94525.69;;;14.53;100.00
67434;BME280;54305;47.950;6.572;2023-10-13T00:24:37;94517.66;;;14.54;100.00
67434;BME280;54305;47.950;6.572;2023-10-13T00:27:11;94518.53;;;14.47;100.00
67434;BME280;54305;47.950;6.572;2023-10-13T00:29:53;94523.50;;;14.42;100.00
67434;BME280;54305;47.950;6.572;2023-10-13T00:32:39;94515.00;;;14.40;100.00
67434;BME280;54305;47.950;6.572;2023-10-13T00:35:07;94518.97;;;14.36;100.00
67434;BME280;54305;47.950;6.572;2023-10-13T00:37:38;94515.00;;;14.40;100.00
67434;BME280;54305;47.950;6.572;2023-10-13T00:40:09;94523.31;;;14.29;100.00
67434;BME280;54305;47.950;6.572;2023-10-13T00:43:03;94516.34;;;14.36;100.00
67434;BME280;54305;47.950;6.572;2023-10-13T00:45:59;94514.47;;;14.30;100.00
67434;BME280;54305;47.950;6.572;2023-10-13T00:48:26;94511.91;;;14.22;100.00
67434;BME280;54305;47.950;6.572;2023-10-13T00:51:00;94512.94;;;14.13;100.00
67434;BME280;54305;47.950;6.572;2023-10-13T00:53:28;94517.84;;;14.16;100.00
67434;BME280;54305;47.950;6.572;2023-10-13T00:55:54;94514.53;;;14.22;100.00
67434;BME280;54305;47.950;6.572;2023-10-13T00:58:23;94508.59;;;14.28;100.00
67434;BME280;54305;47.950;6.572;2023-10-13T01:00:50;94505.25;;;14.34;100.00
67434;BME280;54305;47.950;6.572;2023-10-13T01:03:22;94508.16;;;14.39;100.00
67434;BME280;54305;47.950;6.572;2023-10-13T01:05:52;94503.69;;;14.39;100.00
67434;BME280;54305;47.950;6.572;2023-10-13T01:08:24;94499.00;;;14.35;100.00
67434;BME280;54305;47.950;6.572;2023-10-13T01:10:58;94499.81;;;14.21;100.00
67434;BME280;54305;47.950;6.572;2023-10-13T01:13:23;94493.06;;;14.26;100.00
67434;BME280;54305;47.950;6.572;2023-10-13T01:15:49;94495.22;;;14.23;100.00
67434;BME280;54305;47.950;6.572;2023-10-13T01:18:14;94492.00;;;14.13;100.00
67434;BME280;54305;47.950;6.572;2023-10-13T01:20:41;94495.88;;;14.02;100.00
67434;BME280;54305;47.950;6.572;2023-10-13T01:23:13;94488.91;;;13.95;100.00
67434;BME280;54305;47.950;6.572;2023-10-13T01:25:45;94485.00;;;13.91;100.00
67434;BME280;54305;47.950;6.572;2023-10-13T01:28:11;94477.16;;;13.91;100.00
67434;BME280;54305;47.950;6.572;2023-10-13T01:30:40;94476.22;;;13.84;100.00
67434;BME280;54305;47.950;6.572;2023-10-13T01:33:06;94476.31;;;13.76;100.00
67434;BME280;54305;47.950;6.572;2023-10-13T01:35:34;94484.38;;;13.66;100.00
67434;BME280;54305;47.950;6.572;2023-10-13T01:38:07;94487.41;;;13.78;100.00
67434;BME280;54305;47.950;6.572;2023-10-13T01:40:32;94482.13;;;13.86;100.00
67434;BME280;54305;47.950;6.572;2023-10-13T01:43:00;94490.81;;;14.01;100.00
67434;BME280;54305;47.950;6.572;2023-10-13T01:45:25;94479.34;;;14.02;100.00
67434;BME280;54305;47.950;6.572;2023-10-13T01:47:54;94480.34;;;14.01;100.00
67434;BME280;54305;47.950;6.572;2023-10-13T01:50:19;94476.63;;;13.95;100.00
67434;BME280;54305;47.950;6.572;2023-10-13T01:52:54;94471.69;;;13.78;100.00
67434;BME280;54305;47.950;6.572;2023-10-13T01:55:30;94469.47;;;13.75;100.00
67434;BME280;54305;47.950;6.572;2023-10-13T01:57:56;94461.13;;;13.71;100.00
67434;BME280;54305;47.950;6.572;2023-10-13T02:00:21;94457.75;;;13.63;100.00
67434;BME280;54305;47.950;6.572;2023-10-13T02:02:47;94459.97;;;13.74;100.00
67434;BME280;54305;47.950;6.572;2023-10-13T02:05:15;94455.00;;;13.79;100.00
67434;BME280;54305;47.950;6.572;2023-10-13T02:07:42;94449.03;;;13.70;100.00
67434;BME280;54305;47.950;6.572;2023-10-13T02:10:10;94451.13;;;13.75;100.00
67434;BME280;54305;47.950;6.572;2023-10-13T02:12:37;94447.69;;;13.74;100.00
67434;BME280;54305;47.950;6.572;2023-10-13T02:15:09;94448.44;;;13.83;100.00
67434;BME280;54305;47.950;6.572;2023-10-13T02:17:37;94443.19;;;13.83;100.00
67434;BME280;54305;47.950;6.572;2023-10-13T02:20:06;94442.84;;;13.86;100.00
67434;BME280;54305;47.950;6.572;2023-10-13T02:22:41;94438.19;;;14.54;100.00
67434;BME280;54305;47.950;6.572;2023-10-13T02:25:14;94439.72;;;14.63;100.00
67434;BME280;54305;47.950;6.572;2023-10-13T02:27:42;94440.50;;;15.49;100.00
67434;BME280;54305;47.950;6.572;2023-10-13T02:30:08;94439.84;;;15.26;100.00
67434;BME280;54305;47.950;6.572;2023-10-13T02:32:40;94436.38;;;15.04;100.00
67434;BME280;54305;47.950;6.572;2023-10-13T02:35:08;94433.28;;;14.80;100.00
67434;BME280;54305;47.950;6.572;2023-10-13T02:37:40;94424.81;;;14.99;100.00
67434;BME280;54305;47.950;6.572;2023-10-13T02:40:08;94427.41;;;15.13;100.00
67434;BME280;54305;47.950;6.572;2023-10-13T02:42:34;94426.69;;;15.05;100.00
67434;BME280;54305;47.950;6.572;2023-10-13T02:44:59;94422.94;;;14.93;100.00
67434;BME280;54305;47.950;6.572;2023-10-13T02:47:24;94418.28;;;14.74;100.00
67434;BME280;54305;47.950;6.572;2023-10-13T02:49:51;94413.41;;;14.71;100.00
67434;BME280;54305;47.950;6.572;2023-10-13T02:52:17;94414.81;;;14.88;100.00
67434;BME280;54305;47.950;6.572;2023-10-13T02:54:42;94412.09;;;14.96;100.00
67434;BME280;54305;47.950;6.572;2023-10-13T02:57:15;94412.34;;;15.01;100.00
67434;BME280;54305;47.950;6.572;2023-10-13T02:59:40;94412.94;;;14.82;100.00
67434;BME280;54305;47.950;6.572;2023-10-13T03:02:11;94411.50;;;15.15;100.00
67434;BME280;54305;47.950;6.572;2023-10-13T03:04:49;94419.91;;;15.10;100.00
67434;BME280;54305;47.950;6.572;2023-10-13T03:07:14;94411.44;;;14.94;100.00
67434;BME280;54305;47.950;6.572;2023-10-13T03:09:41;94411.94;;;14.83;100.00
67434;BME280;54305;47.950;6.572;2023-10-13T03:12:14;94403.06;;;14.84;100.00
67434;BME280;54305;47.950;6.572;2023-10-13T03:14:40;94394.06;;;14.72;100.00
67434;BME280;54305;47.950;6.572;2023-10-13T03:17:05;94399.16;;;14.59;100.00
67434;BME280;54305;47.950;6.572;2023-10-13T03:19:31;94399.38;;;14.43;100.00
67434;BME280;54305;47.950;6.572;2023-10-13T03:22:00;94400.91;;;14.37;100.00
67434;BME280;54305;47.950;6.572;2023-10-13T03:24:34;94401.19;;;14.28;100.00
67434;BME280;54305;47.950;6.572;2023-10-13T03:27:00;94398.31;;;14.23;100.00
67434;BME280;54305;47.950;6.572;2023-10-13T03:29:34;94393.94;;;14.01;100.00
67434;BME280;54305;47.950;6.572;2023-10-13T03:32:00;94390.38;;;13.94;100.00
67434;BME280;54305;47.950;6.572;2023-10-13T03:34:36;94392.09;;;13.87;100.00
67434;BME280;54305;47.950;6.572;2023-10-13T03:37:05;94400.03;;;13.79;100.00
67434;BME280;54305;47.950;6.572;2023-10-13T03:39:37;94391.47;;;13.85;100.00
67434;BME280;54305;47.950;6.572;2023-10-13T03:42:02;94387.94;;;13.78;100.00
67434;BME280;54305;47.950;6.572;2023-10-13T03:44:30;94390.66;;;13.70;100.00
67434;BME280;54305;47.950;6.572;2023-10-13T03:46:56;94391.56;;;13.77;100.00
67434;BME280;54305;47.950;6.572;2023-10-13T03:49:21;94383.09;;;13.75;100.00
67434;BME280;54305;47.950;6.572;2023-10-13T03:51:47;94386.03;;;13.86;100.00
67434;BME280;54305;47.950;6.572;2023-10-13T03:54:13;94378.13;;;13.80;100.00
67434;BME280;54305;47.950;6.572;2023-10-13T03:56:40;94376.75;;;13.84;100.00
67434;BME280;54305;47.950;6.572;2023-10-13T03:59:06;94380.00;;;13.86;100.00
67434;BME280;54305;47.950;6.572;2023-10-13T04:01:34;94376.06;;;13.90;100.00
67434;BME280;54305;47.950;6.572;2023-10-13T04:04:11;94372.78;;;13.88;100.00
67434;BME280;54305;47.950;6.572;2023-10-13T04:06:37;94373.53;;;14.40;100.00
67434;BME280;54305;47.950;6.572;2023-10-13T04:09:21;94368.91;;;14.42;100.00
67434;BME280;54305;47.950;6.572;2023-10-13T04:14:27;94365.19;;;14.51;100.00
67434;BME280;54305;47.950;6.572;2023-10-13T04:17:11;94359.00;;;14.73;100.00
67434;BME280;54305;47.950;6.572;2023-10-13T04:19:41;94361.50;;;14.81;100.00
67434;BME280;54305;47.950;6.572;2023-10-13T04:22:26;94355.00;;;15.19;100.00
67434;BME280;54305;47.950;6.572;2023-10-13T04:25:11;94355.41;;;15.16;100.00
67434;BME280;54305;47.950;6.572;2023-10-13T04:27:55;94345.78;;;15.44;100.00
67434;BME280;54305;47.950;6.572;2023-10-13T04:36:01;94343.03;;;15.10;100.00
67434;BME280;54305;47.950;6.572;2023-10-13T04:38:26;94346.31;;;14.97;100.00
67434;BME280;54305;47.950;6.572;2023-10-13T04:40:59;94335.53;;;15.07;100.00
67434;BME280;54305;47.950;6.572;2023-10-13T04:43:26;94339.88;;;15.42;100.00
67434;BME280;54305;47.950;6.572;2023-10-13T04:45:59;94341.84;;;15.33;100.00
67434;BME280;54305;47.950;6.572;2023-10-13T04:48:39;94344.00;;;15.51;100.00
67434;BME280;54305;47.950;6.572;2023-10-13T04:51:04;94333.03;;;15.41;100.00
67434;BME280;54305;47.950;6.572;2023-10-13T04:54:08;94338.28;;;15.20;100.00
67434;BME280;54305;47.950;6.572;2023-10-13T04:56:49;94335.31;;;15.29;100.00
67434;BME280;54305;47.950;6.572;2023-10-13T04:59:33;94337.91;;;15.02;100.00
67434;BME280;54305;47.950;6.572;2023-10-13T05:02:02;94342.88;;;14.76;100.00
67434;BME280;54305;47.950;6.572;2023-10-13T05:04:47;94333.88;;;14.64;100.00
67434;BME280;54305;47.950;6.572;2023-10-13T05:07:30;94326.03;;;14.85;100.00
67434;BME280;54305;47.950;6.572;2023-10-13T05:10:14;94335.91;;;14.62;100.00
67434;BME280;54305;47.950;6.572;2023-10-13T05:12:59;94323.44;;;14.49;100.00
67434;BME280;54305;47.950;6.572;2023-10-13T05:15:44;94323.47;;;14.35;100.00
67434;BME280;54305;47.950;6.572;2023-10-13T05:18:28;94319.50;;;14.24;100.00
67434;BME280;54305;47.950;6.572;2023-10-13T05:21:12;94319.97;;;14.13;100.00
67434;BME280;54305;47.950;6.572;2023-10-13T05:23:56;94319.53;;;14.10;100.00
67434;BME280;54305;47.950;6.572;2023-10-13T05:26:40;94323.66;;;14.19;100.00
67434;BME280;54305;47.950;6.572;2023-10-13T05:29:24;94330.47;;;14.28;100.00
67434;BME280;54305;47.950;6.572;2023-10-13T05:32:08;94318.44;;;14.19;100.00
67434;BME280;54305;47.950;6.572;2023-10-13T05:34:52;94327.09;;;14.05;100.00
67434;BME280;54305;47.950;6.572;2023-10-13T05:37:36;94332.25;;;13.98;100.00
67434;BME280;54305;47.950;6.572;2023-10-13T05:40:19;94330.16;;;13.94;100.00
67434;BME280;54305;47.950;6.572;2023-10-13T05:43:04;94334.69;;;14.29;100.00
67434;BME280;54305;47.950;6.572;2023-10-13T05:45:47;94338.13;;;14.65;100.00
67434;BME280;54305;47.950;6.572;2023-10-13T05:48:39;94341.66;;;14.72;100.00
67434;BME280;54305;47.950;6.572;2023-10-13T05:51:22;94335.41;;;14.73;100.00
67434;BME280;54305;47.950;6.572;2023-10-13T05:53:57;94339.31;;;14.62;100.00
67434;BME280;54305;47.950;6.572;2023-10-13T05:56:54;94330.53;;;14.91;100.00
67434;BME280;54305;47.950;6.572;2023-10-13T05:59:38;94337.94;;;14.87;100.00
67434;BME280;54305;47.950;6.572;2023-10-13T06:02:22;94344.00;;;15.09;100.00
67434;BME280;54305;47.950;6.572;2023-10-13T06:05:08;94352.88;;;15.29;100.00
67434;BME280;54305;47.950;6.572;2023-10-13T06:07:52;94345.75;;;15.23;100.00
67434;BME280;54305;47.950;6.572;2023-10-13T06:10:36;94351.63;;;15.04;100.00
67434;BME280;54305;47.950;6.572;2023-10-13T06:13:20;94352.13;;;14.93;100.00
67434;BME280;54305;47.950;6.572;2023-10-13T06:16:04;94349.75;;;14.77;100.00
67434;BME280;54305;47.950;6.572;2023-10-13T06:18:48;94337.78;;;14.53;100.00
67434;BME280;54305;47.950;6.572;2023-10-13T06:21:32;94361.94;;;14.84;100.00
67434;BME280;54305;47.950;6.572;2023-10-13T06:24:16;94356.16;;;15.10;100.00
67434;BME280;54305;47.950;6.572;2023-10-13T06:27:00;94356.50;;;15.07;100.00
67434;BME280;54305;47.950;6.572;2023-10-13T06:29:44;94361.97;;;15.33;100.00
67434;BME280;54305;47.950;6.572;2023-10-13T06:32:10;94372.00;;;15.23;100.00
67434;BME280;54305;47.950;6.572;2023-10-13T06:34:36;94362.38;;;15.30;100.00
67434;BME280;54305;47.950;6.572;2023-10-13T06:37:16;94364.16;;;15.44;100.00
67434;BME280;54305;47.950;6.572;2023-10-13T06:39:51;94370.78;;;15.40;100.00
67434;BME280;54305;47.950;6.572;2023-10-13T06:42:21;94363.63;;;15.34;100.00
67434;BME280;54305;47.950;6.572;2023-10-13T06:44:47;94369.78;;;15.41;100.00
67434;BME280;54305;47.950;6.572;2023-10-13T06:47:12;94371.88;;;15.52;100.00
67434;BME280;54305;47.950;6.572;2023-10-13T06:49:39;94367.50;;;15.59;100.00
67434;BME280;54305;47.950;6.572;2023-10-13T06:52:05;94374.47;;;15.73;100.00
67434;BME280;54305;47.950;6.572;2023-10-13T06:54:35;94367.69;;;15.85;100.00
67434;BME280;54305;47.950;6.572;2023-10-13T06:57:00;94364.28;;;15.91;100.00
67434;BME280;54305;47.950;6.572;2023-10-13T06:59:28;94365.44;;;16.09;100.00
67434;BME280;54305;47.950;6.572;2023-10-13T07:01:57;94362.25;;;16.20;100.00
67434;BME280;54305;47.950;6.572;2023-10-13T07:04:28;94363.53;;;16.31;100.00
67434;BME280;54305;47.950;6.572;2023-10-13T07:06:53;94363.59;;;16.44;100.00
67434;BME280;54305;47.950;6.572;2023-10-13T07:09:19;94363.09;;;16.68;100.00
67434;BME280;54305;47.950;6.572;2023-10-13T07:12:00;94360.50;;;16.81;100.00
67434;BME280;54305;47.950;6.572;2023-10-13T07:14:29;94358.91;;;16.93;100.00
67434;BME280;54305;47.950;6.572;2023-10-13T07:17:01;94371.47;;;16.91;100.00
67434;BME280;54305;47.950;6.572;2023-10-13T07:19:27;94360.56;;;17.07;100.00
67434;BME280;54305;47.950;6.572;2023-10-13T07:21:56;94360.19;;;17.29;100.00
67434;BME280;54305;47.950;6.572;2023-10-13T07:24:27;94358.97;;;17.32;100.00
67434;BME280;54305;47.950;6.572;2023-10-13T07:27:05;94361.84;;;17.43;100.00
67434;BME280;54305;47.950;6.572;2023-10-13T07:29:31;94360.84;;;17.51;100.00
67434;BME280;54305;47.950;6.572;2023-10-13T07:31:59;94365.31;;;17.76;100.00
67434;BME280;54305;47.950;6.572;2023-10-13T07:34:27;94362.84;;;17.81;100.00
67434;BME280;54305;47.950;6.572;2023-10-13T07:36:56;94370.38;;;17.91;100.00
67434;BME280;54305;47.950;6.572;2023-10-13T07:39:25;94355.78;;;17.82;100.00
67434;BME280;54305;47.950;6.572;2023-10-13T07:41:51;94371.34;;;18.03;100.00
67434;BME280;54305;47.950;6.572;2023-10-13T07:44:19;94372.38;;;17.95;100.00
67434;BME280;54305;47.950;6.572;2023-10-13T07:46:49;94375.19;;;18.26;100.00
67434;BME280;54305;47.950;6.572;2023-10-13T07:49:22;94370.66;;;18.53;100.00
67434;BME280;54305;47.950;6.572;2023-10-13T07:51:48;94372.03;;;18.62;100.00
67434;BME280;54305;47.950;6.572;2023-10-13T07:54:16;94355.63;;;18.60;100.00
67434;BME280;54305;47.950;6.572;2023-10-13T07:56:48;94368.50;;;18.81;100.00
67434;BME280;54305;47.950;6.572;2023-10-13T07:59:13;94364.41;;;18.91;100.00
67434;BME280;54305;47.950;6.572;2023-10-13T08:01:40;94360.66;;;19.12;100.00
67434;BME280;54305;47.950;6.572;2023-10-13T08:04:10;94369.69;;;19.29;100.00
67434;BME280;54305;47.950;6.572;2023-10-13T08:06:41;94370.03;;;19.01;100.00
67434;BME280;54305;47.950;6.572;2023-10-13T08:09:08;94362.31;;;19.00;100.00
67434;BME280;54305;47.950;6.572;2023-10-13T08:11:54;94365.34;;;19.03;100.00
67434;BME280;54305;47.950;6.572;2023-10-13T08:14:19;94359.78;;;19.18;100.00
67434;BME280;54305;47.950;6.572;2023-10-13T08:16:48;94357.34;;;19.23;100.00
67434;BME280;54305;47.950;6.572;2023-10-13T08:19:28;94363.44;;;19.23;100.00
67434;BME280;54305;47.950;6.572;2023-10-13T08:22:01;94356.75;;;19.52;100.00
67434;BME280;54305;47.950;6.572;2023-10-13T08:24:59;94361.22;;;19.76;100.00
67434;BME280;54305;47.950;6.572;2023-10-13T08:27:45;94357.06;;;19.62;100.00
67434;BME280;54305;47.950;6.572;2023-10-13T08:30:14;94354.81;;;19.41;100.00
67434;BME280;54305;47.950;6.572;2023-10-13T08:32:53;94353.34;;;19.45;100.00
67434;BME280;54305;47.950;6.572;2023-10-13T08:35:20;94363.06;;;19.51;100.00
67434;BME280;54305;47.950;6.572;2023-10-13T08:37:58;94377.34;;;19.68;99.39
67434;BME280;54305;47.950;6.572;2023-10-13T08:40:24;94367.81;;;19.67;98.74
67434;BME280;54305;47.950;6.572;2023-10-13T08:43:15;94363.44;;;19.79;96.57
67434;BME280;54305;47.950;6.572;2023-10-13T08:45:42;94363.63;;;20.02;97.68
67434;BME280;54305;47.950;6.572;2023-10-13T08:48:09;94363.88;;;20.00;91.72
67434;BME280;54305;47.950;6.572;2023-10-13T08:50:39;94355.03;;;20.13;93.41
67434;BME280;54305;47.950;6.572;2023-10-13T08:53:21;94342.69;;;20.25;97.30
67434;BME280;54305;47.950;6.572;2023-10-13T08:55:56;94352.91;;;20.22;88.84
67434;BME280;54305;47.950;6.572;2023-10-13T08:58:31;94353.78;;;20.16;90.89
67434;BME280;54305;47.950;6.572;2023-10-13T09:01:15;94355.84;;;20.07;86.21
67434;BME280;54305;47.950;6.572;2023-10-13T09:04:10;94356.25;;;19.86;87.72
67434;BME280;54305;47.950;6.572;2023-10-13T09:06:53;94349.84;;;20.00;87.12
67434;BME280;54305;47.950;6.572;2023-10-13T09:09:25;94342.34;;;20.22;84.43
67434;BME280;54305;47.950;6.572;2023-10-13T09:11:59;94341.88;;;20.42;81.62
67434;BME280;54305;47.950;6.572;2023-10-13T09:14:37;94338.13;;;20.68;83.26
67434;BME280;54305;47.950;6.572;2023-10-13T09:17:10;94330.47;;;20.96;80.58
67434;BME280;54305;47.950;6.572;2023-10-13T09:19:48;94331.09;;;20.44;81.78
67434;BME280;54305;47.950;6.572;2023-10-13T09:22:21;94328.44;;;20.80;80.23
67434;BME280;54305;47.950;6.572;2023-10-13T09:24:59;94325.88;;;21.03;73.31
67434;BME280;54305;47.950;6.572;2023-10-13T09:27:25;94325.13;;;21.55;77.00
67434;BME280;54305;47.950;6.572;2023-10-13T09:29:55;94321.28;;;21.40;71.58
67434;BME280;54305;47.950;6.572;2023-10-13T09:32:21;94328.81;;;21.54;74.60
67434;BME280;54305;47.950;6.572;2023-10-13T09:34:46;94315.50;;;21.72;73.20
67434;BME280;54305;47.950;6.572;2023-10-13T09:37:13;94318.50;;;21.35;69.87
67434;BME280;54305;47.950;6.572;2023-10-13T09:39:45;94317.19;;;21.14;67.12
67434;BME280;54305;47.950;6.572;2023-10-13T09:42:13;94300.91;;;21.40;68.81
67434;BME280;54305;47.950;6.572;2023-10-13T09:44:40;94297.97;;;21.94;65.71
67434;BME280;54305;47.950;6.572;2023-10-13T09:47:08;94292.81;;;21.35;65.78
67434;BME280;54305;47.950;6.572;2023-10-13T09:49:43;94295.53;;;21.81;64.22
67434;BME280;54305;47.950;6.572;2023-10-13T09:52:15;94285.06;;;21.86;66.43
67434;BME280;54305;47.950;6.572;2023-10-13T09:54:47;94284.16;;;21.69;61.22
67434;BME280;54305;47.950;6.572;2023-10-13T09:57:23;94287.78;;;22.37;62.19
67434;BME280;54305;47.950;6.572;2023-10-13T09:59:51;94282.13;;;22.57;58.27
67434;BME280;54305;47.950;6.572;2023-10-13T10:02:18;94281.56;;;23.22;59.34
67434;BME280;54305;47.950;6.572;2023-10-13T10:04:53;94288.69;;;23.66;53.55
67434;BME280;54305;47.950;6.572;2023-10-13T10:07:25;94288.22;;;22.57;54.88
67434;BME280;54305;47.950;6.572;2023-10-13T10:09:56;94287.09;;;22.53;55.01
67434;BME280;54305;47.950;6.572;2023-10-13T10:17:26;94269.03;;;22.78;57.33
67434;BME280;54305;47.950;6.572;2023-10-13T10:19:55;94261.03;;;23.51;55.38
67434;BME280;54305;47.950;6.572;2023-10-13T10:22:28;94255.50;;;24.88;51.16
67434;BME280;54305;47.950;6.572;2023-10-13T10:24:58;94259.53;;;24.90;46.30
67434;BME280;54305;47.950;6.572;2023-10-13T10:27:25;94257.94;;;25.42;46.03
67434;BME280;54305;47.950;6.572;2023-10-13T10:29:53;94249.00;;;25.27;44.32
67434;BME280;54305;47.950;6.572;2023-10-13T10:32:19;94267.97;;;26.30;42.57
67434;BME280;54305;47.950;6.572;2023-10-13T10:34:44;94337.72;;;27.51;40.80
67434;BME280;54305;47.950;6.572;2023-10-13T10:37:09;94511.88;;;26.40;41.86
67434;BME280;54305;47.950;6.572;2023-10-13T10:39:35;94684.19;;;27.17;40.18
67434;BME280;54305;47.950;6.572;2023-10-13T10:42:13;94525.03;;;27.51;38.39
67434;BME280;54305;47.950;6.572;2023-10-13T10:44:51;94317.69;;;25.99;40.19
67434;BME280;54305;47.950;6.572;2023-10-13T10:47:20;94255.13;;;26.27;39.98
67434;BME280;54305;47.950;6.572;2023-10-13T10:50:02;94223.41;;;26.40;40.15
67434;BME280;54305;47.950;6.572;2023-10-13T10:52:44;94215.16;;;27.28;37.94
67434;BME280;54305;47.950;6.572;2023-10-13T10:55:11;94225.56;;;29.42;34.84
67434;BME280;54305;47.950;6.572;2023-10-13T10:57:39;94242.66;;;28.49;36.79
67434;BME280;54305;47.950;6.572;2023-10-13T11:00:17;94257.41;;;26.08;37.90
67434;BME280;54305;47.950;6.572;2023-10-13T11:02:52;94232.75;;;29.56;35.70
67434;BME280;54305;47.950;6.572;2023-10-13T11:05:17;94225.72;;;30.74;32.19
67434;BME280;54305;47.950;6.572;2023-10-13T11:07:45;94224.72;;;29.08;33.79
67434;BME280;54305;47.950;6.572;2023-10-13T11:10:16;94217.88;;;29.30;33.68
67434;BME280;54305;47.950;6.572;2023-10-13T11:13:02;94222.06;;;29.80;32.96
67434;BME280;54305;47.950;6.572;2023-10-13T11:15:41;94210.25;;;30.61;31.85
67434;BME280;54305;47.950;6.572;2023-10-13T11:18:09;94209.72;;;30.07;32.46
67434;BME280;54305;47.950;6.572;2023-10-13T11:20:41;94192.38;;;30.28;32.32
67434;BME280;54305;47.950;6.572;2023-10-13T11:23:13;94196.03;;;30.37;32.24
67434;BME280;54305;47.950;6.572;2023-10-13T11:25:38;94198.53;;;30.52;32.46
67434;BME280;54305;47.950;6.572;2023-10-13T11:30:35;94203.84;;;31.73;30.17
67434;BME280;54305;47.950;6.572;2023-10-13T11:33:02;94194.00;;;31.50;28.79
67434;BME280;54305;47.950;6.572;2023-10-13T11:35:40;94184.16;;;30.15;31.20
67434;BME280;54305;47.950;6.572;2023-10-13T11:38:25;94177.50;;;31.70;29.67
67434;BME280;54305;47.950;6.572;2023-10-13T11:43:33;94165.47;;;29.76;31.27
67434;BME280;54305;47.950;6.572;2023-10-13T11:46:25;94159.59;;;31.29;28.46
67434;BME280;54305;47.950;6.572;2023-10-13T11:49:00;94157.34;;;30.80;28.34
67434;BME280;54305;47.950;6.572;2023-10-13T11:51:30;94152.81;;;33.17;26.71
67434;BME280;54305;47.950;6.572;2023-10-13T11:53:57;94148.38;;;31.03;28.72
67434;BME280;54305;47.950;6.572;2023-10-13T11:56:23;94145.50;;;32.55;26.58
67434;BME280;54305;47.950;6.572;2023-10-13T11:58:49;94127.91;;;30.65;27.63
67434;BME280;54305;47.950;6.572;2023-10-13T12:01:15;94106.75;;;32.65;26.83
67434;BME280;54305;47.950;6.572;2023-10-13T12:03:41;94108.13;;;33.47;24.93
67434;BME280;54305;47.950;6.572;2023-10-13T12:06:25;94105.00;;;32.33;25.67
67434;BME280;54305;47.950;6.572;2023-10-13T12:11:56;94080.63;;;33.23;24.84
67434;BME280;54305;47.950;6.572;2023-10-13T12:14:25;94059.19;;;33.79;24.14
67434;BME280;54305;47.950;6.572;2023-10-13T12:16:55;94048.13;;;32.57;24.49
67434;BME280;54305;47.950;6.572;2023-10-13T12:19:21;94036.25;;;34.29;23.79
67434;BME280;54305;47.950;6.572;2023-10-13T12:21:50;94021.13;;;31.94;25.88
67434;BME280;54305;47.950;6.572;2023-10-13T12:24:19;94013.38;;;33.96;24.65
67434;BME280;54305;47.950;6.572;2023-10-13T12:26:55;94004.94;;;30.89;26.28
67434;BME280;54305;47.950;6.572;2023-10-13T12:29:24;93994.34;;;33.18;25.34
67434;BME280;54305;47.950;6.572;2023-10-13T12:31:56;93983.22;;;33.19;25.00
67434;BME280;54305;47.950;6.572;2023-10-13T12:34:36;93992.13;;;32.76;25.51
67434;BME280;54305;47.950;6.572;2023-10-13T12:37:20;93993.16;;;31.49;25.61
67434;BME280;54305;47.950;6.572;2023-10-13T12:40:02;94008.13;;;33.99;24.04
67434;BME280;54305;47.950;6.572;2023-10-13T12:42:46;94037.81;;;30.86;26.37
67434;BME280;54305;47.950;6.572;2023-10-13T12:45:30;94036.19;;;32.36;25.62
67434;BME280;54305;47.950;6.572;2023-10-13T12:48:13;94050.91;;;34.62;24.11
67434;BME280;54305;47.950;6.572;2023-10-13T12:51:00;94045.34;;;33.72;25.06
67434;BME280;54305;47.950;6.572;2023-10-13T12:53:44;94052.56;;;34.24;24.47
67434;BME280;54305;47.950;6.572;2023-10-13T12:56:10;94051.91;;;33.49;25.03
67434;BME280;54305;47.950;6.572;2023-10-13T12:58:36;94047.09;;;34.07;24.25
67434;BME280;54305;47.950;6.572;2023-10-13T13:01:02;94046.88;;;32.00;26.96
67434;BME280;54305;47.950;6.572;2023-10-13T13:03:31;94051.28;;;33.08;26.49
67434;BME280;54305;47.950;6.572;2023-10-13T13:05:57;94049.44;;;33.61;24.69
67434;BME280;54305;47.950;6.572;2023-10-13T13:08:23;94063.16;;;32.36;25.50
67434;BME280;54305;47.950;6.572;2023-10-13T13:10:48;94053.03;;;30.77;27.66
67434;BME280;54305;47.950;6.572;2023-10-13T13:13:13;94057.09;;;31.71;27.04
67434;BME280;54305;47.950;6.572;2023-10-13T13:15:41;94052.38;;;32.71;25.75
67434;BME280;54305;47.950;6.572;2023-10-13T13:18:07;94051.31;;;34.21;24.69
67434;BME280;54305;47.950;6.572;2023-10-13T13:20:39;94064.56;;;31.60;25.87
67434;BME280;54305;47.950;6.572;2023-10-13T13:23:04;94058.75;;;33.11;24.54
67434;BME280;54305;47.950;6.572;2023-10-13T13:25:29;94047.63;;;33.56;22.78
67434;BME280;54305;47.950;6.572;2023-10-13T13:27:56;94045.72;;;32.55;23.71
67434;BME280;54305;47.950;6.572;2023-10-13T13:30:22;94044.47;;;30.75;25.37
67434;BME280;54305;47.950;6.572;2023-10-13T13:32:55;94039.13;;;34.02;22.72
67434;BME280;54305;47.950;6.572;2023-10-13T13:35:20;94039.38;;;33.31;22.92
67434;BME280;54305;47.950;6.572;2023-10-13T13:37:45;94031.34;;;32.60;23.24
67434;BME280;54305;47.950;6.572;2023-10-13T13:40:11;94028.38;;;33.27;23.82
67434;BME280;54305;47.950;6.572;2023-10-13T13:42:43;94018.16;;;32.94;23.53